sensor_id;sensor_type;location;lat;lon;timestamp;temperature;humidity
62464;SHT31;48512;48.552;9.380;2023-07-30T00:02:00;19.39;88.38
62464;SHT31;48512;48.552;9.380;2023-07-30T00:04:26;19.59;87.82
62464;SHT31;48512;48.552;9.380;2023-07-30T00:06:53;19.36;88.75
62464;SHT31;48512;48.552;9.380;2023-07-30T00:09:19;19.45;87.91
62464;SHT31;48512;48.552;9.380;2023-07-30T00:11:45;19.32;89.14
62464;SHT31;48512;48.552;9.380;2023-07-30T00:14:12;19.24;88.03
62464;SHT31;48512;48.552;9.380;2023-07-30T00:16:38;19.30;88.40
62464;SHT31;48512;48.552;9.380;2023-07-30T00:19:04;19.28;88.54
62464;SHT31;48512;48.552;9.380;2023-07-30T00:21:30;19.23;89.83
62464;SHT31;48512;48.552;9.380;2023-07-30T00:23:56;19.20;89.16
62464;SHT31;48512;48.552;9.380;2023-07-30T00:26:22;19.17;88.99
62464;SHT31;48512;48.552;9.380;2023-07-30T00:28:52;19.13;89.56
62464;SHT31;48512;48.552;9.380;2023-07-30T00:31:18;19.18;89.49
62464;SHT31;48512;48.552;9.380;2023-07-30T00:33:44;19.11;89.58
62464;SHT31;48512;48.552;9.380;2023-07-30T00:36:10;19.06;89.77
62464;SHT31;48512;48.552;9.380;2023-07-30T00:38:38;19.04;90.59
62464;SHT31;48512;48.552;9.380;2023-07-30T00:41:04;19.03;90.98
62464;SHT31;48512;48.552;9.380;2023-07-30T00:43:30;19.03;90.88
62464;SHT31;48512;48.552;9.380;2023-07-30T00:45:56;18.90;91.30
62464;SHT31;48512;48.552;9.380;2023-07-30T00:48:22;18.99;91.18
62464;SHT31;48512;48.552;9.380;2023-07-30T00:50:48;19.03;90.93
62464;SHT31;48512;48.552;9.380;2023-07-30T00:53:16;19.02;90.71
62464;SHT31;48512;48.552;9.380;2023-07-30T00:55:43;19.14;90.24
62464;SHT31;48512;48.552;9.380;2023-07-30T00:58:10;19.14;90.70
62464;SHT31;48512;48.552;9.380;2023-07-30T01:00:36;18.90;91.02
62464;SHT31;48512;48.552;9.380;2023-07-30T01:03:02;18.94;91.09
62464;SHT31;48512;48.552;9.380;2023-07-30T01:05:28;18.97;90.80
62464;SHT31;48512;48.552;9.380;2023-07-30T01:07:55;19.00;90.70
62464;SHT31;48512;48.552;9.380;2023-07-30T01:10:22;19.15;89.09
62464;SHT31;48512;48.552;9.380;2023-07-30T01:12:48;19.25;87.13
62464;SHT31;48512;48.552;9.380;2023-07-30T01:15:16;19.36;87.13
62464;SHT31;48512;48.552;9.380;2023-07-30T01:17:42;19.30;87.06
62464;SHT31;48512;48.552;9.380;2023-07-30T01:20:10;19.30;86.90
62464;SHT31;48512;48.552;9.380;2023-07-30T01:22:36;19.58;85.13
62464;SHT31;48512;48.552;9.380;2023-07-30T01:25:03;19.41;86.29
62464;SHT31;48512;48.552;9.380;2023-07-30T01:27:31;19.42;86.33
62464;SHT31;48512;48.552;9.380;2023-07-30T01:30:12;19.32;86.72
62464;SHT31;48512;48.552;9.380;2023-07-30T01:32:40;19.32;86.72
62464;SHT31;48512;48.552;9.380;2023-07-30T01:35:08;19.34;86.87
62464;SHT31;48512;48.552;9.380;2023-07-30T01:37:35;19.38;86.81
62464;SHT31;48512;48.552;9.380;2023-07-30T01:40:03;19.50;85.92
62464;SHT31;48512;48.552;9.380;2023-07-30T01:42:30;19.38;86.32
62464;SHT31;48512;48.552;9.380;2023-07-30T01:44:56;19.41;86.01
62464;SHT31;48512;48.552;9.380;2023-07-30T01:47:22;19.54;85.52
62464;SHT31;48512;48.552;9.380;2023-07-30T01:49:48;19.58;85.51
62464;SHT31;48512;48.552;9.380;2023-07-30T01:52:15;19.48;85.34
62464;SHT31;48512;48.552;9.380;2023-07-30T01:54:41;19.31;86.25
62464;SHT31;48512;48.552;9.380;2023-07-30T01:57:08;19.39;86.32
62464;SHT31;48512;48.552;9.380;2023-07-30T01:59:34;19.24;87.42
62464;SHT31;48512;48.552;9.380;2023-07-30T02:02:00;19.31;86.03
62464;SHT31;48512;48.552;9.380;2023-07-30T02:04:26;19.15;86.34
62464;SHT31;48512;48.552;9.380;2023-07-30T02:06:52;19.21;86.17
62464;SHT31;48512;48.552;9.380;2023-07-30T02:09:19;19.18;86.43
62464;SHT31;48512;48.552;9.380;2023-07-30T02:11:45;19.35;85.57
62464;SHT31;48512;48.552;9.380;2023-07-30T02:14:11;19.17;86.75
62464;SHT31;48512;48.552;9.380;2023-07-30T02:16:40;19.27;86.21
62464;SHT31;48512;48.552;9.380;2023-07-30T02:19:07;19.30;85.50
62464;SHT31;48512;48.552;9.380;2023-07-30T02:21:33;19.42;84.84
62464;SHT31;48512;48.552;9.380;2023-07-30T02:24:02;19.38;84.36
62464;SHT31;48512;48.552;9.380;2023-07-30T02:26:28;19.15;85.18
62464;SHT31;48512;48.552;9.380;2023-07-30T02:28:54;19.06;85.64
62464;SHT31;48512;48.552;9.380;2023-07-30T02:31:20;18.94;86.45
62464;SHT31;48512;48.552;9.380;2023-07-30T02:33:46;18.92;87.07
62464;SHT31;48512;48.552;9.380;2023-07-30T02:36:13;18.96;86.94
62464;SHT31;48512;48.552;9.380;2023-07-30T02:38:39;18.89;87.23
62464;SHT31;48512;48.552;9.380;2023-07-30T02:41:05;18.69;88.00
62464;SHT31;48512;48.552;9.380;2023-07-30T02:43:31;18.65;87.70
62464;SHT31;48512;48.552;9.380;2023-07-30T02:45:57;18.63;88.49
62464;SHT31;48512;48.552;9.380;2023-07-30T02:48:23;18.62;88.58
62464;SHT31;48512;48.552;9.380;2023-07-30T02:50:49;18.48;88.76
62464;SHT31;48512;48.552;9.380;2023-07-30T02:53:15;18.51;89.00
62464;SHT31;48512;48.552;9.380;2023-07-30T02:55:41;18.52;88.79
62464;SHT31;48512;48.552;9.380;2023-07-30T02:58:07;18.45;89.38
62464;SHT31;48512;48.552;9.380;2023-07-30T03:00:33;18.67;88.73
62464;SHT31;48512;48.552;9.380;2023-07-30T03:02:59;18.37;89.56
62464;SHT31;48512;48.552;9.380;2023-07-30T03:05:28;18.27;90.26
62464;SHT31;48512;48.552;9.380;2023-07-30T03:07:54;18.22;90.67
62464;SHT31;48512;48.552;9.380;2023-07-30T03:10:21;18.18;90.60
62464;SHT31;48512;48.552;9.380;2023-07-30T03:12:47;18.11;90.80
62464;SHT31;48512;48.552;9.380;2023-07-30T03:15:13;18.10;90.66
62464;SHT31;48512;48.552;9.380;2023-07-30T03:17:39;18.32;89.59
62464;SHT31;48512;48.552;9.380;2023-07-30T03:20:06;18.53;88.37
62464;SHT31;48512;48.552;9.380;2023-07-30T03:22:32;18.65;86.56
62464;SHT31;48512;48.552;9.380;2023-07-30T03:24:58;18.66;86.79
62464;SHT31;48512;48.552;9.380;2023-07-30T03:27:24;18.60;86.43
62464;SHT31;48512;48.552;9.380;2023-07-30T03:29:50;18.85;85.65
62464;SHT31;48512;48.552;9.380;2023-07-30T03:32:16;18.75;85.94
62464;SHT31;48512;48.552;9.380;2023-07-30T03:34:43;18.67;86.12
62464;SHT31;48512;48.552;9.380;2023-07-30T03:37:09;18.62;86.40
62464;SHT31;48512;48.552;9.380;2023-07-30T03:39:35;18.56;86.74
62464;SHT31;48512;48.552;9.380;2023-07-30T03:42:01;18.59;86.79
62464;SHT31;48512;48.552;9.380;2023-07-30T03:44:27;18.55;87.19
62464;SHT31;48512;48.552;9.380;2023-07-30T03:46:53;18.53;87.53
62464;SHT31;48512;48.552;9.380;2023-07-30T03:49:20;18.37;88.39
62464;SHT31;48512;48.552;9.380;2023-07-30T03:51:47;18.51;87.63
62464;SHT31;48512;48.552;9.380;2023-07-30T03:54:13;18.83;86.62
62464;SHT31;48512;48.552;9.380;2023-07-30T03:56:39;18.69;85.83
62464;SHT31;48512;48.552;9.380;2023-07-30T03:59:05;18.67;85.56
62464;SHT31;48512;48.552;9.380;2023-07-30T04:01:31;18.53;86.38
62464;SHT31;48512;48.552;9.380;2023-07-30T04:03:57;18.51;86.82
62464;SHT31;48512;48.552;9.380;2023-07-30T04:06:23;18.48;87.26
62464;SHT31;48512;48.552;9.380;2023-07-30T04:08:49;18.62;86.50
62464;SHT31;48512;48.552;9.380;2023-07-30T04:11:15;18.75;85.47
62464;SHT31;48512;48.552;9.380;2023-07-30T04:13:42;18.96;85.09
62464;SHT31;48512;48.552;9.380;2023-07-30T04:16:08;18.99;85.20
62464;SHT31;48512;48.552;9.380;2023-07-30T04:18:34;18.76;85.48
62464;SHT31;48512;48.552;9.380;2023-07-30T04:21:00;18.67;86.94
62464;SHT31;48512;48.552;9.380;2023-07-30T04:23:26;18.77;86.81
62464;SHT31;48512;48.552;9.380;2023-07-30T04:25:52;18.69;86.96
62464;SHT31;48512;48.552;9.380;2023-07-30T04:28:18;18.79;85.93
62464;SHT31;48512;48.552;9.380;2023-07-30T04:30:44;18.94;85.35
62464;SHT31;48512;48.552;9.380;2023-07-30T04:33:13;18.96;84.99
62464;SHT31;48512;48.552;9.380;2023-07-30T04:35:40;18.89;85.59
62464;SHT31;48512;48.552;9.380;2023-07-30T04:38:07;18.99;84.97
62464;SHT31;48512;48.552;9.380;2023-07-30T04:40:33;18.86;85.69
62464;SHT31;48512;48.552;9.380;2023-07-30T04:42:59;18.82;86.34
62464;SHT31;48512;48.552;9.380;2023-07-30T04:45:25;18.82;86.21
62464;SHT31;48512;48.552;9.380;2023-07-30T04:47:52;18.94;86.15
62464;SHT31;48512;48.552;9.380;2023-07-30T04:50:18;18.85;86.57
62464;SHT31;48512;48.552;9.380;2023-07-30T04:52:44;18.92;85.96
62464;SHT31;48512;48.552;9.380;2023-07-30T04:55:10;18.89;84.89
62464;SHT31;48512;48.552;9.380;2023-07-30T04:57:36;18.90;85.54
62464;SHT31;48512;48.552;9.380;2023-07-30T05:00:03;18.92;85.36
62464;SHT31;48512;48.552;9.380;2023-07-30T05:02:30;19.20;83.96
62464;SHT31;48512;48.552;9.380;2023-07-30T05:04:56;19.03;84.81
62464;SHT31;48512;48.552;9.380;2023-07-30T05:07:22;19.03;85.08
62464;SHT31;48512;48.552;9.380;2023-07-30T05:09:48;19.14;83.59
62464;SHT31;48512;48.552;9.380;2023-07-30T05:12:14;19.07;83.92
62464;SHT31;48512;48.552;9.380;2023-07-30T05:14:40;19.13;84.30
62464;SHT31;48512;48.552;9.380;2023-07-30T05:17:06;19.14;84.50
62464;SHT31;48512;48.552;9.380;2023-07-30T05:19:32;19.17;84.08
62464;SHT31;48512;48.552;9.380;2023-07-30T05:21:59;19.27;84.94
62464;SHT31;48512;48.552;9.380;2023-07-30T05:24:27;19.35;84.08
62464;SHT31;48512;48.552;9.380;2023-07-30T05:26:53;19.28;85.19
62464;SHT31;48512;48.552;9.380;2023-07-30T05:29:19;19.28;85.35
62464;SHT31;48512;48.552;9.380;2023-07-30T05:31:45;19.18;85.49
62464;SHT31;48512;48.552;9.380;2023-07-30T05:34:12;19.21;86.00
62464;SHT31;48512;48.552;9.380;2023-07-30T05:36:38;19.18;86.41
62464;SHT31;48512;48.552;9.380;2023-07-30T05:39:04;19.20;85.16
62464;SHT31;48512;48.552;9.380;2023-07-30T05:41:30;19.30;85.65
62464;SHT31;48512;48.552;9.380;2023-07-30T05:43:56;19.45;84.35
62464;SHT31;48512;48.552;9.380;2023-07-30T05:46:22;19.36;83.24
62464;SHT31;48512;48.552;9.380;2023-07-30T05:48:48;19.39;82.75
62464;SHT31;48512;48.552;9.380;2023-07-30T05:51:14;19.36;83.69
62464;SHT31;48512;48.552;9.380;2023-07-30T05:53:40;19.57;82.53
62464;SHT31;48512;48.552;9.380;2023-07-30T05:56:06;19.51;82.61
62464;SHT31;48512;48.552;9.380;2023-07-30T05:58:32;19.65;81.79
62464;SHT31;48512;48.552;9.380;2023-07-30T06:00:58;19.66;81.78
62464;SHT31;48512;48.552;9.380;2023-07-30T06:03:24;19.79;81.52
62464;SHT31;48512;48.552;9.380;2023-07-30T06:05:50;19.65;83.40
62464;SHT31;48512;48.552;9.380;2023-07-30T06:08:16;19.62;84.20
62464;SHT31;48512;48.552;9.380;2023-07-30T06:10:43;19.65;83.77
62464;SHT31;48512;48.552;9.380;2023-07-30T06:13:09;19.65;83.17
62464;SHT31;48512;48.552;9.380;2023-07-30T06:15:35;19.85;82.51
62464;SHT31;48512;48.552;9.380;2023-07-30T06:18:01;19.89;82.43
62464;SHT31;48512;48.552;9.380;2023-07-30T06:20:29;19.99;82.67
62464;SHT31;48512;48.552;9.380;2023-07-30T06:22:55;20.17;81.90
62464;SHT31;48512;48.552;9.380;2023-07-30T06:25:21;20.14;81.90
62464;SHT31;48512;48.552;9.380;2023-07-30T06:27:47;20.10;82.67
62464;SHT31;48512;48.552;9.380;2023-07-30T06:30:13;20.06;83.70
62464;SHT31;48512;48.552;9.380;2023-07-30T06:32:39;19.96;83.81
62464;SHT31;48512;48.552;9.380;2023-07-30T06:35:06;20.00;84.17
62464;SHT31;48512;48.552;9.380;2023-07-30T06:37:32;20.03;83.08
62464;SHT31;48512;48.552;9.380;2023-07-30T06:39:58;20.19;83.35
62464;SHT31;48512;48.552;9.380;2023-07-30T06:42:25;20.21;83.34
62464;SHT31;48512;48.552;9.380;2023-07-30T06:44:51;20.20;81.70
62464;SHT31;48512;48.552;9.380;2023-07-30T06:47:17;20.14;82.83
62464;SHT31;48512;48.552;9.380;2023-07-30T06:49:43;20.24;82.87
62464;SHT31;48512;48.552;9.380;2023-07-30T06:52:09;20.16;82.64
62464;SHT31;48512;48.552;9.380;2023-07-30T06:54:35;20.09;83.91
62464;SHT31;48512;48.552;9.380;2023-07-30T06:57:01;20.38;80.92
62464;SHT31;48512;48.552;9.380;2023-07-30T06:59:28;20.63;80.72
62464;SHT31;48512;48.552;9.380;2023-07-30T07:01:54;20.63;80.98
62464;SHT31;48512;48.552;9.380;2023-07-30T07:04:20;20.65;81.55
62464;SHT31;48512;48.552;9.380;2023-07-30T07:06:46;21.00;79.28
62464;SHT31;48512;48.552;9.380;2023-07-30T07:09:12;20.65;80.36
62464;SHT31;48512;48.552;9.380;2023-07-30T07:11:38;20.44;81.24
62464;SHT31;48512;48.552;9.380;2023-07-30T07:14:04;20.57;80.63
62464;SHT31;48512;48.552;9.380;2023-07-30T07:16:31;20.57;80.44
62464;SHT31;48512;48.552;9.380;2023-07-30T07:18:57;20.84;79.25
62464;SHT31;48512;48.552;9.380;2023-07-30T07:21:23;20.79;78.93
62464;SHT31;48512;48.552;9.380;2023-07-30T07:23:49;21.03;78.92
62464;SHT31;48512;48.552;9.380;2023-07-30T07:26:15;21.29;77.27
62464;SHT31;48512;48.552;9.380;2023-07-30T07:28:41;21.16;77.47
62464;SHT31;48512;48.552;9.380;2023-07-30T07:31:07;20.99;78.66
62464;SHT31;48512;48.552;9.380;2023-07-30T07:33:33;21.13;78.34
62464;SHT31;48512;48.552;9.380;2023-07-30T07:36:08;21.34;78.03
62464;SHT31;48512;48.552;9.380;2023-07-30T07:38:35;21.61;77.36
62464;SHT31;48512;48.552;9.380;2023-07-30T07:41:01;21.54;77.60
62464;SHT31;48512;48.552;9.380;2023-07-30T07:43:27;21.58;77.59
62464;SHT31;48512;48.552;9.380;2023-07-30T07:45:54;21.64;77.60
62464;SHT31;48512;48.552;9.380;2023-07-30T07:48:20;21.51;78.35
62464;SHT31;48512;48.552;9.380;2023-07-30T07:50:46;21.44;78.73
62464;SHT31;48512;48.552;9.380;2023-07-30T07:53:12;21.34;80.59
62464;SHT31;48512;48.552;9.380;2023-07-30T07:55:38;20.91;80.67
62464;SHT31;48512;48.552;9.380;2023-07-30T07:58:04;20.41;80.37
62464;SHT31;48512;48.552;9.380;2023-07-30T08:00:30;20.14;81.72
62464;SHT31;48512;48.552;9.380;2023-07-30T08:02:56;19.80;82.80
62464;SHT31;48512;48.552;9.380;2023-07-30T08:05:22;19.80;82.56
62464;SHT31;48512;48.552;9.380;2023-07-30T08:07:50;19.75;83.87
62464;SHT31;48512;48.552;9.380;2023-07-30T08:10:16;19.71;84.69
62464;SHT31;48512;48.552;9.380;2023-07-30T08:12:42;19.75;84.62
62464;SHT31;48512;48.552;9.380;2023-07-30T08:15:09;19.83;82.97
62464;SHT31;48512;48.552;9.380;2023-07-30T08:17:35;19.69;82.18
62464;SHT31;48512;48.552;9.380;2023-07-30T08:20:01;19.68;85.15
62464;SHT31;48512;48.552;9.380;2023-07-30T08:22:27;19.63;81.84
62464;SHT31;48512;48.552;9.380;2023-07-30T08:24:53;19.82;82.35
62464;SHT31;48512;48.552;9.380;2023-07-30T08:27:19;19.79;83.83
62464;SHT31;48512;48.552;9.380;2023-07-30T08:29:45;19.94;84.44
62464;SHT31;48512;48.552;9.380;2023-07-30T08:32:11;20.20;84.23
62464;SHT31;48512;48.552;9.380;2023-07-30T08:34:38;20.37;85.10
62464;SHT31;48512;48.552;9.380;2023-07-30T08:37:04;20.30;85.06
62464;SHT31;48512;48.552;9.380;2023-07-30T08:39:30;20.31;86.02
62464;SHT31;48512;48.552;9.380;2023-07-30T08:41:56;20.30;83.21
62464;SHT31;48512;48.552;9.380;2023-07-30T08:44:22;20.34;83.96
62464;SHT31;48512;48.552;9.380;2023-07-30T08:46:48;20.51;84.53
62464;SHT31;48512;48.552;9.380;2023-07-30T08:49:15;20.49;83.99
62464;SHT31;48512;48.552;9.380;2023-07-30T08:51:41;20.55;83.83
62464;SHT31;48512;48.552;9.380;2023-07-30T08:54:09;20.96;83.17
62464;SHT31;48512;48.552;9.380;2023-07-30T08:56:36;20.91;80.68
62464;SHT31;48512;48.552;9.380;2023-07-30T08:59:03;21.10;80.09
62464;SHT31;48512;48.552;9.380;2023-07-30T09:01:30;21.24;77.36
62464;SHT31;48512;48.552;9.380;2023-07-30T09:04:00;21.22;78.17
62464;SHT31;48512;48.552;9.380;2023-07-30T09:06:26;21.26;79.40
62464;SHT31;48512;48.552;9.380;2023-07-30T09:08:52;21.37;80.47
62464;SHT31;48512;48.552;9.380;2023-07-30T09:11:18;21.36;79.18
62464;SHT31;48512;48.552;9.380;2023-07-30T09:13:46;21.74;78.39
62464;SHT31;48512;48.552;9.380;2023-07-30T09:16:13;21.41;79.73
62464;SHT31;48512;48.552;9.380;2023-07-30T09:18:46;21.75;78.43
62464;SHT31;48512;48.552;9.380;2023-07-30T09:21:13;21.99;77.81
62464;SHT31;48512;48.552;9.380;2023-07-30T09:23:43;21.89;79.36
62464;SHT31;48512;48.552;9.380;2023-07-30T09:26:10;21.95;78.93
62464;SHT31;48512;48.552;9.380;2023-07-30T09:28:37;21.92;80.01
62464;SHT31;48512;48.552;9.380;2023-07-30T09:31:06;21.67;80.15
62464;SHT31;48512;48.552;9.380;2023-07-30T09:33:34;21.77;79.36
62464;SHT31;48512;48.552;9.380;2023-07-30T09:36:04;21.77;78.55
62464;SHT31;48512;48.552;9.380;2023-07-30T09:38:30;21.88;78.60
62464;SHT31;48512;48.552;9.380;2023-07-30T09:41:02;21.74;78.50
62464;SHT31;48512;48.552;9.380;2023-07-30T09:43:31;21.53;79.16
62464;SHT31;48512;48.552;9.380;2023-07-30T09:46:06;21.64;78.51
62464;SHT31;48512;48.552;9.380;2023-07-30T09:48:33;21.54;78.72
62464;SHT31;48512;48.552;9.380;2023-07-30T09:51:01;21.55;80.21
62464;SHT31;48512;48.552;9.380;2023-07-30T09:53:33;21.53;77.23
62464;SHT31;48512;48.552;9.380;2023-07-30T09:56:04;21.41;78.87
62464;SHT31;48512;48.552;9.380;2023-07-30T09:58:31;21.37;78.83
62464;SHT31;48512;48.552;9.380;2023-07-30T10:00:58;21.23;78.57
62464;SHT31;48512;48.552;9.380;2023-07-30T10:03:27;21.33;78.04
62464;SHT31;48512;48.552;9.380;2023-07-30T10:06:04;21.14;77.43
62464;SHT31;48512;48.552;9.380;2023-07-30T10:08:38;21.14;77.82
62464;SHT31;48512;48.552;9.380;2023-07-30T10:11:07;20.86;79.15
62464;SHT31;48512;48.552;9.380;2023-07-30T10:13:35;20.72;78.84
62464;SHT31;48512;48.552;9.380;2023-07-30T10:16:01;20.85;79.48
62464;SHT31;48512;48.552;9.380;2023-07-30T10:18:41;20.75;80.16
62464;SHT31;48512;48.552;9.380;2023-07-30T10:21:09;21.02;80.00
62464;SHT31;48512;48.552;9.380;2023-07-30T10:23:46;21.40;78.57
62464;SHT31;48512;48.552;9.380;2023-07-30T10:26:12;21.64;77.23
62464;SHT31;48512;48.552;9.380;2023-07-30T10:28:38;21.71;76.32
62464;SHT31;48512;48.552;9.380;2023-07-30T10:31:09;21.87;73.44
62464;SHT31;48512;48.552;9.380;2023-07-30T10:36:11;21.77;73.16
62464;SHT31;48512;48.552;9.380;2023-07-30T10:38:38;21.92;72.70
62464;SHT31;48512;48.552;9.380;2023-07-30T10:41:08;21.99;73.27
62464;SHT31;48512;48.552;9.380;2023-07-30T10:43:40;22.04;71.08
62464;SHT31;48512;48.552;9.380;2023-07-30T10:46:09;21.89;73.11
62464;SHT31;48512;48.552;9.380;2023-07-30T10:48:36;22.13;72.43
62464;SHT31;48512;48.552;9.380;2023-07-30T10:51:08;21.99;72.74
62464;SHT31;48512;48.552;9.380;2023-07-30T10:53:35;22.08;74.36
62464;SHT31;48512;48.552;9.380;2023-07-30T10:56:03;21.85;73.10
62464;SHT31;48512;48.552;9.380;2023-07-30T10:58:31;22.01;72.59
62464;SHT31;48512;48.552;9.380;2023-07-30T11:00:58;22.06;71.64
62464;SHT31;48512;48.552;9.380;2023-07-30T11:03:25;22.19;71.38
62464;SHT31;48512;48.552;9.380;2023-07-30T11:05:53;22.22;71.20
62464;SHT31;48512;48.552;9.380;2023-07-30T11:08:42;22.26;68.75
62464;SHT31;48512;48.552;9.380;2023-07-30T11:11:10;22.43;69.40
62464;SHT31;48512;48.552;9.380;2023-07-30T11:13:40;22.30;72.08
62464;SHT31;48512;48.552;9.380;2023-07-30T11:16:08;22.83;67.56
62464;SHT31;48512;48.552;9.380;2023-07-30T11:18:35;22.91;68.25
62464;SHT31;48512;48.552;9.380;2023-07-30T11:21:06;23.26;67.44
62464;SHT31;48512;48.552;9.380;2023-07-30T11:23:33;23.59;66.18
62464;SHT31;48512;48.552;9.380;2023-07-30T11:26:01;23.70;65.39
62464;SHT31;48512;48.552;9.380;2023-07-30T11:30:59;24.72;62.44
62464;SHT31;48512;48.552;9.380;2023-07-30T11:33:30;24.29;61.87
62464;SHT31;48512;48.552;9.380;2023-07-30T11:35:56;24.62;62.50
62464;SHT31;48512;48.552;9.380;2023-07-30T11:38:24;25.31;61.48
62464;SHT31;48512;48.552;9.380;2023-07-30T11:40:54;25.66;60.06
62464;SHT31;48512;48.552;9.380;2023-07-30T11:43:21;25.89;60.85
62464;SHT31;48512;48.552;9.380;2023-07-30T11:45:49;26.10;59.40
62464;SHT31;48512;48.552;9.380;2023-07-30T11:48:15;26.19;57.95
62464;SHT31;48512;48.552;9.380;2023-07-30T11:50:45;26.31;57.25
62464;SHT31;48512;48.552;9.380;2023-07-30T11:53:12;26.26;55.96
62464;SHT31;48512;48.552;9.380;2023-07-30T11:55:40;26.60;57.67
62464;SHT31;48512;48.552;9.380;2023-07-30T11:58:07;26.48;55.36
62464;SHT31;48512;48.552;9.380;2023-07-30T12:00:33;26.54;55.14
62464;SHT31;48512;48.552;9.380;2023-07-30T12:03:03;27.02;53.82
62464;SHT31;48512;48.552;9.380;2023-07-30T12:05:37;26.96;52.42
62464;SHT31;48512;48.552;9.380;2023-07-30T12:08:06;27.08;52.73
62464;SHT31;48512;48.552;9.380;2023-07-30T12:10:46;27.27;51.46
62464;SHT31;48512;48.552;9.380;2023-07-30T12:13:18;27.02;52.76
62464;SHT31;48512;48.552;9.380;2023-07-30T12:15:51;27.05;51.15
62464;SHT31;48512;48.552;9.380;2023-07-30T12:18:19;27.74;50.51
62464;SHT31;48512;48.552;9.380;2023-07-30T12:20:47;27.20;52.46
62464;SHT31;48512;48.552;9.380;2023-07-30T12:23:20;26.89;51.52
62464;SHT31;48512;48.552;9.380;2023-07-30T12:25:47;27.61;50.31
62464;SHT31;48512;48.552;9.380;2023-07-30T12:28:13;28.12;47.67
62464;SHT31;48512;48.552;9.380;2023-07-30T12:30:39;27.63;50.52
62464;SHT31;48512;48.552;9.380;2023-07-30T12:33:06;28.33;49.65
62464;SHT31;48512;48.552;9.380;2023-07-30T12:35:32;28.77;46.69
62464;SHT31;48512;48.552;9.380;2023-07-30T12:37:59;28.94;48.37
62464;SHT31;48512;48.552;9.380;2023-07-30T12:40:26;28.39;46.44
62464;SHT31;48512;48.552;9.380;2023-07-30T12:42:55;27.71;49.18
62464;SHT31;48512;48.552;9.380;2023-07-30T12:45:21;28.42;48.74
62464;SHT31;48512;48.552;9.380;2023-07-30T12:47:47;28.95;48.30
62464;SHT31;48512;48.552;9.380;2023-07-30T12:50:13;29.29;46.99
62464;SHT31;48512;48.552;9.380;2023-07-30T12:52:40;29.65;46.03
62464;SHT31;48512;48.552;9.380;2023-07-30T12:55:06;30.04;44.64
62464;SHT31;48512;48.552;9.380;2023-07-30T12:57:32;29.86;45.71
62464;SHT31;48512;48.552;9.380;2023-07-30T12:59:59;29.89;44.67
62464;SHT31;48512;48.552;9.380;2023-07-30T13:02:25;29.65;44.55
62464;SHT31;48512;48.552;9.380;2023-07-30T13:04:51;29.62;45.22
62464;SHT31;48512;48.552;9.380;2023-07-30T13:07:17;28.93;46.47
62464;SHT31;48512;48.552;9.380;2023-07-30T13:09:45;28.55;47.20
62464;SHT31;48512;48.552;9.380;2023-07-30T13:12:11;28.73;46.59
62464;SHT31;48512;48.552;9.380;2023-07-30T13:14:37;29.10;46.03
62464;SHT31;48512;48.552;9.380;2023-07-30T13:17:04;29.67;45.14
62464;SHT31;48512;48.552;9.380;2023-07-30T13:19:30;30.51;45.15
62464;SHT31;48512;48.552;9.380;2023-07-30T13:21:58;30.47;44.35
62464;SHT31;48512;48.552;9.380;2023-07-30T13:24:24;29.69;45.00
62464;SHT31;48512;48.552;9.380;2023-07-30T13:26:50;29.70;45.34
62464;SHT31;48512;48.552;9.380;2023-07-30T13:29:16;29.18;46.24
62464;SHT31;48512;48.552;9.380;2023-07-30T13:31:42;29.11;45.95
62464;SHT31;48512;48.552;9.380;2023-07-30T13:34:08;29.73;45.73
62464;SHT31;48512;48.552;9.380;2023-07-30T13:36:34;29.93;46.86
62464;SHT31;48512;48.552;9.380;2023-07-30T13:39:00;30.18;46.44
62464;SHT31;48512;48.552;9.380;2023-07-30T13:41:26;29.58;46.86
62464;SHT31;48512;48.552;9.380;2023-07-30T13:43:52;28.46;48.80
62464;SHT31;48512;48.552;9.380;2023-07-30T13:46:18;28.67;47.53
62464;SHT31;48512;48.552;9.380;2023-07-30T13:48:44;29.32;46.85
62464;SHT31;48512;48.552;9.380;2023-07-30T13:51:10;29.35;47.45
62464;SHT31;48512;48.552;9.380;2023-07-30T13:53:37;28.73;47.62
62464;SHT31;48512;48.552;9.380;2023-07-30T13:56:07;29.01;47.13
62464;SHT31;48512;48.552;9.380;2023-07-30T13:58:33;28.78;47.98
62464;SHT31;48512;48.552;9.380;2023-07-30T14:00:59;28.97;46.45
62464;SHT31;48512;48.552;9.380;2023-07-30T14:03:25;28.43;48.08
62464;SHT31;48512;48.552;9.380;2023-07-30T14:05:51;28.28;47.45
62464;SHT31;48512;48.552;9.380;2023-07-30T14:08:17;28.00;48.69
62464;SHT31;48512;48.552;9.380;2023-07-30T14:10:43;27.91;48.95
62464;SHT31;48512;48.552;9.380;2023-07-30T14:13:09;27.91;49.04
62464;SHT31;48512;48.552;9.380;2023-07-30T14:15:36;27.82;49.44
62464;SHT31;48512;48.552;9.380;2023-07-30T14:18:02;27.54;49.90
62464;SHT31;48512;48.552;9.380;2023-07-30T14:20:28;27.58;49.97
62464;SHT31;48512;48.552;9.380;2023-07-30T14:22:54;28.70;47.88
62464;SHT31;48512;48.552;9.380;2023-07-30T14:25:20;28.06;47.99
62464;SHT31;48512;48.552;9.380;2023-07-30T14:27:46;28.57;47.89
62464;SHT31;48512;48.552;9.380;2023-07-30T14:30:12;29.22;46.51
62464;SHT31;48512;48.552;9.380;2023-07-30T14:32:38;28.98;47.52
62464;SHT31;48512;48.552;9.380;2023-07-30T14:35:05;28.73;47.11
62464;SHT31;48512;48.552;9.380;2023-07-30T14:37:31;28.12;48.07
62464;SHT31;48512;48.552;9.380;2023-07-30T14:39:57;27.58;48.74
62464;SHT31;48512;48.552;9.380;2023-07-30T14:42:23;27.44;49.81
62464;SHT31;48512;48.552;9.380;2023-07-30T14:44:49;27.23;50.59
62464;SHT31;48512;48.552;9.380;2023-07-30T14:47:15;27.23;50.13
62464;SHT31;48512;48.552;9.380;2023-07-30T14:49:42;27.26;50.10
62464;SHT31;48512;48.552;9.380;2023-07-30T14:52:09;27.09;50.89
62464;SHT31;48512;48.552;9.380;2023-07-30T14:54:35;27.16;50.35
62464;SHT31;48512;48.552;9.380;2023-07-30T14:57:01;27.00;50.54
62464;SHT31;48512;48.552;9.380;2023-07-30T14:59:27;27.00;49.89
62464;SHT31;48512;48.552;9.380;2023-07-30T15:01:53;27.02;49.87
62464;SHT31;48512;48.552;9.380;2023-07-30T15:04:19;26.95;50.32
62464;SHT31;48512;48.552;9.380;2023-07-30T15:06:45;26.78;51.01
62464;SHT31;48512;48.552;9.380;2023-07-30T15:09:12;26.55;51.04
62464;SHT31;48512;48.552;9.380;2023-07-30T15:11:38;26.34;51.64
62464;SHT31;48512;48.552;9.380;2023-07-30T15:14:04;26.26;51.08
62464;SHT31;48512;48.552;9.380;2023-07-30T15:16:30;26.30;51.51
62464;SHT31;48512;48.552;9.380;2023-07-30T15:18:57;25.82;52.07
62464;SHT31;48512;48.552;9.380;2023-07-30T15:21:23;25.86;52.82
62464;SHT31;48512;48.552;9.380;2023-07-30T15:23:49;26.26;51.05
62464;SHT31;48512;48.552;9.380;2023-07-30T15:26:16;26.10;52.10
62464;SHT31;48512;48.552;9.380;2023-07-30T15:28:42;26.03;52.00
62464;SHT31;48512;48.552;9.380;2023-07-30T15:31:08;25.71;52.68
62464;SHT31;48512;48.552;9.380;2023-07-30T15:33:35;25.64;52.43